sensor_id;sensor_type;location;lat;lon;timestamp;P1;durP1;ratioP1;P2;durP2;ratioP2
21148;SDS011;10732;51.472;6.466;2023-05-27T00:01:22;21.60;;;7.20;;
21148;SDS011;10732;51.472;6.466;2023-05-27T00:03:47;24.65;;;7.50;;
21148;SDS011;10732;51.472;6.466;2023-05-27T00:06:13;22.25;;;6.53;;
21148;SDS011;10732;51.472;6.466;2023-05-27T00:08:38;22.23;;;6.70;;
21148;SDS011;10732;51.472;6.466;2023-05-27T00:11:04;19.83;;;6.60;;
21148;SDS011;10732;51.472;6.466;2023-05-27T00:13:30;17.13;;;6.40;;
21148;SDS011;10732;51.472;6.466;2023-05-27T00:15:55;16.83;;;6.75;;
21148;SDS011;10732;51.472;6.466;2023-05-27T00:18:21;22.75;;;6.63;;
21148;SDS011;10732;51.472;6.466;2023-05-27T00:20:46;20.67;;;6.93;;
21148;SDS011;10732;51.472;6.466;2023-05-27T00:23:13;21.65;;;6.18;;
21148;SDS011;10732;51.472;6.466;2023-05-27T00:25:38;22.40;;;6.60;;
21148;SDS011;10732;51.472;6.466;2023-05-27T00:28:04;18.23;;;6.18;;
21148;SDS011;10732;51.472;6.466;2023-05-27T00:30:29;21.92;;;6.20;;
21148;SDS011;10732;51.472;6.466;2023-05-27T00:32:55;23.48;;;6.65;;
21148;SDS011;10732;51.472;6.466;2023-05-27T00:35:21;14.80;;;6.03;;
21148;SDS011;10732;51.472;6.466;2023-05-27T00:37:46;19.90;;;7.10;;
21148;SDS011;10732;51.472;6.466;2023-05-27T00:40:12;18.77;;;5.85;;
21148;SDS011;10732;51.472;6.466;2023-05-27T00:42:42;18.88;;;6.70;;
21148;SDS011;10732;51.472;6.466;2023-05-27T00:45:07;22.05;;;6.90;;
21148;SDS011;10732;51.472;6.466;2023-05-27T00:47:34;18.77;;;5.88;;
21148;SDS011;10732;51.472;6.466;2023-05-27T00:50:00;25.42;;;6.65;;
21148;SDS011;10732;51.472;6.466;2023-05-27T00:52:28;23.50;;;7.18;;
21148;SDS011;10732;51.472;6.466;2023-05-27T00:54:54;26.23;;;6.88;;
21148;SDS011;10732;51.472;6.466;2023-05-27T00:57:21;13.15;;;6.15;;
21148;SDS011;10732;51.472;6.466;2023-05-27T00:59:47;17.10;;;6.55;;
21148;SDS011;10732;51.472;6.466;2023-05-27T01:02:13;22.00;;;6.65;;
21148;SDS011;10732;51.472;6.466;2023-05-27T01:04:39;21.83;;;6.80;;
21148;SDS011;10732;51.472;6.466;2023-05-27T01:07:12;22.35;;;6.88;;
21148;SDS011;10732;51.472;6.466;2023-05-27T01:10:08;28.13;;;6.90;;
21148;SDS011;10732;51.472;6.466;2023-05-27T01:12:48;18.50;;;6.35;;
21148;SDS011;10732;51.472;6.466;2023-05-27T01:15:26;19.52;;;6.22;;
21148;SDS011;10732;51.472;6.466;2023-05-27T01:17:55;17.50;;;6.38;;
21148;SDS011;10732;51.472;6.466;2023-05-27T01:20:21;21.35;;;6.93;;
21148;SDS011;10732;51.472;6.466;2023-05-27T01:22:47;20.35;;;6.75;;
21148;SDS011;10732;51.472;6.466;2023-05-27T01:25:17;18.70;;;6.63;;
21148;SDS011;10732;51.472;6.466;2023-05-27T01:27:44;18.58;;;6.38;;
21148;SDS011;10732;51.472;6.466;2023-05-27T01:30:10;18.65;;;6.57;;
21148;SDS011;10732;51.472;6.466;2023-05-27T01:37:49;27.15;;;7.20;;
21148;SDS011;10732;51.472;6.466;2023-05-27T01:40:16;21.52;;;6.70;;
21148;SDS011;10732;51.472;6.466;2023-05-27T01:42:43;20.80;;;6.47;;
21148;SDS011;10732;51.472;6.466;2023-05-27T01:45:09;19.75;;;6.65;;
21148;SDS011;10732;51.472;6.466;2023-05-27T01:47:36;21.40;;;6.88;;
21148;SDS011;10732;51.472;6.466;2023-05-27T01:50:02;15.70;;;6.60;;
21148;SDS011;10732;51.472;6.466;2023-05-27T01:52:28;21.10;;;6.38;;
21148;SDS011;10732;51.472;6.466;2023-05-27T01:54:53;21.63;;;6.88;;
21148;SDS011;10732;51.472;6.466;2023-05-27T01:57:19;26.75;;;6.45;;
21148;SDS011;10732;51.472;6.466;2023-05-27T01:59:46;19.33;;;6.68;;
21148;SDS011;10732;51.472;6.466;2023-05-27T02:02:12;21.13;;;7.15;;
21148;SDS011;10732;51.472;6.466;2023-05-27T02:04:37;16.33;;;6.30;;
21148;SDS011;10732;51.472;6.466;2023-05-27T02:07:03;20.35;;;7.15;;
21148;SDS011;10732;51.472;6.466;2023-05-27T02:09:28;20.67;;;6.65;;
21148;SDS011;10732;51.472;6.466;2023-05-27T02:11:54;25.33;;;7.07;;
21148;SDS011;10732;51.472;6.466;2023-05-27T02:14:20;22.92;;;7.05;;
21148;SDS011;10732;51.472;6.466;2023-05-27T02:16:45;20.42;;;6.70;;
21148;SDS011;10732;51.472;6.466;2023-05-27T02:19:12;17.52;;;6.85;;
21148;SDS011;10732;51.472;6.466;2023-05-27T02:21:39;21.52;;;6.90;;
21148;SDS011;10732;51.472;6.466;2023-05-27T02:24:04;20.25;;;7.43;;
21148;SDS011;10732;51.472;6.466;2023-05-27T02:26:30;17.08;;;6.57;;
21148;SDS011;10732;51.472;6.466;2023-05-27T02:28:55;24.65;;;7.75;;
21148;SDS011;10732;51.472;6.466;2023-05-27T02:31:21;23.92;;;7.50;;
21148;SDS011;10732;51.472;6.466;2023-05-27T02:33:47;20.77;;;7.03;;
21148;SDS011;10732;51.472;6.466;2023-05-27T02:36:12;22.33;;;7.22;;
21148;SDS011;10732;51.472;6.466;2023-05-27T02:38:38;23.45;;;7.13;;
21148;SDS011;10732;51.472;6.466;2023-05-27T02:41:04;17.02;;;7.03;;
21148;SDS011;10732;51.472;6.466;2023-05-27T02:43:30;22.25;;;7.32;;
21148;SDS011;10732;51.472;6.466;2023-05-27T02:45:56;20.42;;;7.35;;
21148;SDS011;10732;51.472;6.466;2023-05-27T02:48:21;25.20;;;7.40;;
21148;SDS011;10732;51.472;6.466;2023-05-27T02:50:47;25.20;;;7.72;;
21148;SDS011;10732;51.472;6.466;2023-05-27T02:53:13;23.60;;;7.07;;
21148;SDS011;10732;51.472;6.466;2023-05-27T02:55:39;20.65;;;6.68;;
21148;SDS011;10732;51.472;6.466;2023-05-27T02:58:04;22.38;;;7.68;;
21148;SDS011;10732;51.472;6.466;2023-05-27T03:00:30;23.83;;;7.30;;
21148;SDS011;10732;51.472;6.466;2023-05-27T03:02:56;21.63;;;8.30;;
21148;SDS011;10732;51.472;6.466;2023-05-27T03:05:21;21.15;;;7.40;;
21148;SDS011;10732;51.472;6.466;2023-05-27T03:07:47;18.77;;;7.30;;
21148;SDS011;10732;51.472;6.466;2023-05-27T03:10:13;23.52;;;7.47;;
21148;SDS011;10732;51.472;6.466;2023-05-27T03:12:38;23.85;;;8.30;;
21148;SDS011;10732;51.472;6.466;2023-05-27T03:15:04;24.40;;;8.27;;
21148;SDS011;10732;51.472;6.466;2023-05-27T03:17:30;18.17;;;8.13;;
21148;SDS011;10732;51.472;6.466;2023-05-27T03:19:56;22.33;;;8.45;;
21148;SDS011;10732;51.472;6.466;2023-05-27T03:22:21;20.75;;;8.30;;
21148;SDS011;10732;51.472;6.466;2023-05-27T03:24:47;24.30;;;7.40;;
21148;SDS011;10732;51.472;6.466;2023-05-27T03:27:12;18.20;;;7.90;;
21148;SDS011;10732;51.472;6.466;2023-05-27T03:29:38;21.25;;;8.35;;
21148;SDS011;10732;51.472;6.466;2023-05-27T03:32:05;21.88;;;8.73;;
21148;SDS011;10732;51.472;6.466;2023-05-27T03:34:31;25.75;;;8.15;;
21148;SDS011;10732;51.472;6.466;2023-05-27T03:36:56;19.58;;;7.80;;
21148;SDS011;10732;51.472;6.466;2023-05-27T03:39:22;25.52;;;8.30;;
21148;SDS011;10732;51.472;6.466;2023-05-27T03:41:47;19.42;;;7.85;;
21148;SDS011;10732;51.472;6.466;2023-05-27T03:44:13;22.48;;;7.57;;
21148;SDS011;10732;51.472;6.466;2023-05-27T03:46:38;20.35;;;7.40;;
21148;SDS011;10732;51.472;6.466;2023-05-27T03:49:04;18.73;;;7.25;;
21148;SDS011;10732;51.472;6.466;2023-05-27T03:51:30;24.65;;;8.27;;
21148;SDS011;10732;51.472;6.466;2023-05-27T03:53:56;26.05;;;8.68;;
21148;SDS011;10732;51.472;6.466;2023-05-27T03:56:22;23.20;;;8.23;;
21148;SDS011;10732;51.472;6.466;2023-05-27T03:58:49;19.25;;;8.15;;
21148;SDS011;10732;51.472;6.466;2023-05-27T04:01:14;23.25;;;7.63;;
21148;SDS011;10732;51.472;6.466;2023-05-27T04:03:41;29.05;;;8.57;;
21148;SDS011;10732;51.472;6.466;2023-05-27T04:06:08;25.20;;;7.57;;
21148;SDS011;10732;51.472;6.466;2023-05-27T04:08:34;23.67;;;8.13;;
21148;SDS011;10732;51.472;6.466;2023-05-27T04:11:00;25.70;;;8.85;;
21148;SDS011;10732;51.472;6.466;2023-05-27T04:13:26;21.92;;;8.05;;
21148;SDS011;10732;51.472;6.466;2023-05-27T04:15:51;25.58;;;8.95;;
21148;SDS011;10732;51.472;6.466;2023-05-27T04:18:18;24.50;;;8.43;;
21148;SDS011;10732;51.472;6.466;2023-05-27T04:20:45;19.80;;;8.70;;
21148;SDS011;10732;51.472;6.466;2023-05-27T04:23:12;15.20;;;7.82;;
21148;SDS011;10732;51.472;6.466;2023-05-27T04:25:38;21.58;;;8.15;;
21148;SDS011;10732;51.472;6.466;2023-05-27T04:28:04;23.27;;;8.48;;
21148;SDS011;10732;51.472;6.466;2023-05-27T04:30:33;20.23;;;7.60;;
21148;SDS011;10732;51.472;6.466;2023-05-27T04:32:59;20.63;;;8.05;;
21148;SDS011;10732;51.472;6.466;2023-05-27T04:35:25;17.80;;;7.82;;
21148;SDS011;10732;51.472;6.466;2023-05-27T04:37:51;20.10;;;7.57;;
21148;SDS011;10732;51.472;6.466;2023-05-27T04:40:17;18.15;;;7.95;;
21148;SDS011;10732;51.472;6.466;2023-05-27T04:42:44;19.52;;;7.28;;
21148;SDS011;10732;51.472;6.466;2023-05-27T04:45:09;16.92;;;7.40;;
21148;SDS011;10732;51.472;6.466;2023-05-27T04:47:36;23.02;;;7.80;;
21148;SDS011;10732;51.472;6.466;2023-05-27T04:50:05;20.40;;;6.75;;
21148;SDS011;10732;51.472;6.466;2023-05-27T04:52:32;12.63;;;6.25;;
21148;SDS011;10732;51.472;6.466;2023-05-27T04:55:03;18.60;;;6.38;;
21148;SDS011;10732;51.472;6.466;2023-05-27T04:57:29;15.85;;;6.10;;
21148;SDS011;10732;51.472;6.466;2023-05-27T04:59:55;18.83;;;6.50;;
21148;SDS011;10732;51.472;6.466;2023-05-27T05:02:42;18.65;;;6.50;;
21148;SDS011;10732;51.472;6.466;2023-05-27T05:05:11;18.75;;;6.43;;
21148;SDS011;10732;51.472;6.466;2023-05-27T05:07:37;15.90;;;5.45;;
21148;SDS011;10732;51.472;6.466;2023-05-27T05:10:05;15.90;;;5.30;;
21148;SDS011;10732;51.472;6.466;2023-05-27T05:12:35;15.98;;;5.72;;
21148;SDS011;10732;51.472;6.466;2023-05-27T05:15:01;14.73;;;5.43;;
21148;SDS011;10732;51.472;6.466;2023-05-27T05:17:27;18.77;;;5.82;;
21148;SDS011;10732;51.472;6.466;2023-05-27T05:19:53;15.23;;;6.15;;
21148;SDS011;10732;51.472;6.466;2023-05-27T05:22:19;15.02;;;5.78;;
21148;SDS011;10732;51.472;6.466;2023-05-27T05:24:46;18.23;;;5.57;;
21148;SDS011;10732;51.472;6.466;2023-05-27T05:27:11;16.33;;;5.25;;
21148;SDS011;10732;51.472;6.466;2023-05-27T05:29:37;18.98;;;6.30;;
21148;SDS011;10732;51.472;6.466;2023-05-27T05:32:03;17.20;;;5.43;;
21148;SDS011;10732;51.472;6.466;2023-05-27T05:34:29;17.30;;;5.82;;
21148;SDS011;10732;51.472;6.466;2023-05-27T05:36:54;17.73;;;5.32;;
21148;SDS011;10732;51.472;6.466;2023-05-27T05:39:20;15.57;;;5.57;;
21148;SDS011;10732;51.472;6.466;2023-05-27T05:41:46;18.98;;;6.20;;
21148;SDS011;10732;51.472;6.466;2023-05-27T05:44:12;16.75;;;5.80;;
21148;SDS011;10732;51.472;6.466;2023-05-27T05:46:38;15.27;;;6.15;;
21148;SDS011;10732;51.472;6.466;2023-05-27T05:49:04;19.35;;;6.32;;
21148;SDS011;10732;51.472;6.466;2023-05-27T05:51:30;16.98;;;5.90;;
21148;SDS011;10732;51.472;6.466;2023-05-27T05:53:56;17.33;;;6.40;;
21148;SDS011;10732;51.472;6.466;2023-05-27T05:56:25;14.27;;;6.30;;
21148;SDS011;10732;51.472;6.466;2023-05-27T05:58:53;18.77;;;6.10;;
21148;SDS011;10732;51.472;6.466;2023-05-27T06:01:19;20.70;;;5.95;;
21148;SDS011;10732;51.472;6.466;2023-05-27T06:03:45;16.52;;;6.20;;
21148;SDS011;10732;51.472;6.466;2023-05-27T06:06:10;14.23;;;5.80;;
21148;SDS011;10732;51.472;6.466;2023-05-27T06:08:36;18.35;;;6.63;;
21148;SDS011;10732;51.472;6.466;2023-05-27T06:11:01;17.23;;;6.15;;
21148;SDS011;10732;51.472;6.466;2023-05-27T06:13:27;12.40;;;5.38;;
21148;SDS011;10732;51.472;6.466;2023-05-27T06:15:53;13.57;;;5.90;;
21148;SDS011;10732;51.472;6.466;2023-05-27T06:18:20;14.77;;;5.80;;
21148;SDS011;10732;51.472;6.466;2023-05-27T06:20:46;18.65;;;6.10;;
21148;SDS011;10732;51.472;6.466;2023-05-27T06:23:11;19.85;;;6.75;;
21148;SDS011;10732;51.472;6.466;2023-05-27T06:25:37;14.00;;;6.05;;
21148;SDS011;10732;51.472;6.466;2023-05-27T06:28:03;16.00;;;6.07;;
21148;SDS011;10732;51.472;6.466;2023-05-27T06:30:28;14.82;;;6.00;;
21148;SDS011;10732;51.472;6.466;2023-05-27T06:32:54;17.63;;;6.15;;
21148;SDS011;10732;51.472;6.466;2023-05-27T06:35:20;14.57;;;5.80;;
21148;SDS011;10732;51.472;6.466;2023-05-27T06:37:46;17.05;;;6.55;;
21148;SDS011;10732;51.472;6.466;2023-05-27T06:40:11;17.20;;;6.50;;
21148;SDS011;10732;51.472;6.466;2023-05-27T06:42:37;18.38;;;6.47;;
21148;SDS011;10732;51.472;6.466;2023-05-27T06:45:03;21.45;;;6.40;;
21148;SDS011;10732;51.472;6.466;2023-05-27T06:47:28;15.43;;;6.13;;
21148;SDS011;10732;51.472;6.466;2023-05-27T06:49:54;18.10;;;6.50;;
21148;SDS011;10732;51.472;6.466;2023-05-27T06:52:20;14.95;;;5.68;;
21148;SDS011;10732;51.472;6.466;2023-05-27T06:54:46;15.85;;;6.22;;
21148;SDS011;10732;51.472;6.466;2023-05-27T06:57:12;16.25;;;6.72;;
21148;SDS011;10732;51.472;6.466;2023-05-27T06:59:37;20.88;;;6.68;;
21148;SDS011;10732;51.472;6.466;2023-05-27T07:02:03;13.00;;;5.55;;
21148;SDS011;10732;51.472;6.466;2023-05-27T07:04:29;17.52;;;6.07;;
21148;SDS011;10732;51.472;6.466;2023-05-27T07:06:54;15.38;;;6.35;;
21148;SDS011;10732;51.472;6.466;2023-05-27T07:09:20;19.67;;;6.40;;
21148;SDS011;10732;51.472;6.466;2023-05-27T07:11:45;15.80;;;6.32;;
21148;SDS011;10732;51.472;6.466;2023-05-27T07:14:11;22.40;;;6.10;;
21148;SDS011;10732;51.472;6.466;2023-05-27T07:16:37;14.57;;;6.03;;
21148;SDS011;10732;51.472;6.466;2023-05-27T07:19:02;18.17;;;5.88;;
21148;SDS011;10732;51.472;6.466;2023-05-27T07:21:28;15.35;;;5.90;;
21148;SDS011;10732;51.472;6.466;2023-05-27T07:23:54;12.65;;;5.40;;
21148;SDS011;10732;51.472;6.466;2023-05-27T07:26:23;16.50;;;6.20;;
21148;SDS011;10732;51.472;6.466;2023-05-27T07:28:50;20.63;;;6.00;;
21148;SDS011;10732;51.472;6.466;2023-05-27T07:31:15;17.48;;;6.10;;
21148;SDS011;10732;51.472;6.466;2023-05-27T07:33:41;14.13;;;5.75;;
21148;SDS011;10732;51.472;6.466;2023-05-27T07:36:07;17.25;;;6.20;;
21148;SDS011;10732;51.472;6.466;2023-05-27T07:38:32;17.23;;;6.88;;
21148;SDS011;10732;51.472;6.466;2023-05-27T07:40:58;13.48;;;5.75;;
21148;SDS011;10732;51.472;6.466;2023-05-27T07:43:23;14.85;;;6.30;;
21148;SDS011;10732;51.472;6.466;2023-05-27T07:45:49;16.05;;;5.97;;
21148;SDS011;10732;51.472;6.466;2023-05-27T07:48:15;18.75;;;6.00;;
21148;SDS011;10732;51.472;6.466;2023-05-27T07:50:40;14.02;;;5.53;;
21148;SDS011;10732;51.472;6.466;2023-05-27T07:53:06;13.23;;;5.50;;
21148;SDS011;10732;51.472;6.466;2023-05-27T07:55:31;16.02;;;6.40;;
21148;SDS011;10732;51.472;6.466;2023-05-27T07:57:57;14.07;;;5.85;;
21148;SDS011;10732;51.472;6.466;2023-05-27T08:00:22;18.38;;;6.38;;
21148;SDS011;10732;51.472;6.466;2023-05-27T08:02:48;17.48;;;5.90;;
21148;SDS011;10732;51.472;6.466;2023-05-27T08:05:13;18.15;;;6.47;;
21148;SDS011;10732;51.472;6.466;2023-05-27T08:07:39;15.60;;;6.15;;
21148;SDS011;10732;51.472;6.466;2023-05-27T08:10:05;16.45;;;5.78;;
21148;SDS011;10732;51.472;6.466;2023-05-27T08:12:31;14.95;;;5.80;;
21148;SDS011;10732;51.472;6.466;2023-05-27T08:14:57;15.90;;;6.20;;
21148;SDS011;10732;51.472;6.466;2023-05-27T08:17:23;19.48;;;5.80;;
21148;SDS011;10732;51.472;6.466;2023-05-27T08:19:48;16.88;;;6.00;;
21148;SDS011;10732;51.472;6.466;2023-05-27T08:22:14;14.13;;;6.10;;
21148;SDS011;10732;51.472;6.466;2023-05-27T08:24:39;18.25;;;6.43;;
21148;SDS011;10732;51.472;6.466;2023-05-27T08:27:05;17.55;;;6.03;;
21148;SDS011;10732;51.472;6.466;2023-05-27T08:29:38;17.88;;;6.70;;
21148;SDS011;10732;51.472;6.466;2023-05-27T08:32:03;17.05;;;6.65;;
21148;SDS011;10732;51.472;6.466;2023-05-27T08:34:29;18.67;;;6.65;;
21148;SDS011;10732;51.472;6.466;2023-05-27T08:36:54;15.15;;;6.13;;
21148;SDS011;10732;51.472;6.466;2023-05-27T08:39:20;14.85;;;6.30;;
21148;SDS011;10732;51.472;6.466;2023-05-27T08:41:45;16.52;;;6.85;;
21148;SDS011;10732;51.472;6.466;2023-05-27T08:44:11;20.40;;;6.82;;
21148;SDS011;10732;51.472;6.466;2023-05-27T08:46:37;14.25;;;6.35;;
21148;SDS011;10732;51.472;6.466;2023-05-27T08:49:02;14.98;;;6.80;;
21148;SDS011;10732;51.472;6.466;2023-05-27T08:51:28;15.75;;;6.15;;
21148;SDS011;10732;51.472;6.466;2023-05-27T08:53:54;19.90;;;6.53;;
21148;SDS011;10732;51.472;6.466;2023-05-27T08:56:20;12.93;;;6.00;;
21148;SDS011;10732;51.472;6.466;2023-05-27T08:58:46;14.23;;;6.28;;
21148;SDS011;10732;51.472;6.466;2023-05-27T09:01:13;13.20;;;5.28;;
21148;SDS011;10732;51.472;6.466;2023-05-27T09:03:44;14.23;;;5.90;;
21148;SDS011;10732;51.472;6.466;2023-05-27T09:06:10;12.40;;;5.55;;
21148;SDS011;10732;51.472;6.466;2023-05-27T09:08:35;13.45;;;5.25;;
21148;SDS011;10732;51.472;6.466;2023-05-27T09:11:01;14.75;;;5.57;;
21148;SDS011;10732;51.472;6.466;2023-05-27T09:13:28;15.68;;;6.05;;
21148;SDS011;10732;51.472;6.466;2023-05-27T09:15:58;14.80;;;6.00;;
21148;SDS011;10732;51.472;6.466;2023-05-27T09:18:31;17.55;;;6.43;;
21148;SDS011;10732;51.472;6.466;2023-05-27T09:20:57;15.02;;;6.18;;
21148;SDS011;10732;51.472;6.466;2023-05-27T09:23:23;14.27;;;5.90;;
21148;SDS011;10732;51.472;6.466;2023-05-27T09:25:49;16.20;;;6.40;;
21148;SDS011;10732;51.472;6.466;2023-05-27T09:28:22;15.70;;;6.10;;
21148;SDS011;10732;51.472;6.466;2023-05-27T09:30:51;18.98;;;6.00;;
21148;SDS011;10732;51.472;6.466;2023-05-27T09:33:25;15.65;;;6.32;;
21148;SDS011;10732;51.472;6.466;2023-05-27T09:35:51;13.55;;;5.47;;
21148;SDS011;10732;51.472;6.466;2023-05-27T09:38:17;15.25;;;5.53;;
21148;SDS011;10732;51.472;6.466;2023-05-27T09:40:45;18.27;;;6.20;;
21148;SDS011;10732;51.472;6.466;2023-05-27T09:43:14;17.58;;;6.40;;
21148;SDS011;10732;51.472;6.466;2023-05-27T09:45:41;18.40;;;5.90;;
21148;SDS011;10732;51.472;6.466;2023-05-27T09:48:07;13.93;;;5.70;;
21148;SDS011;10732;51.472;6.466;2023-05-27T09:50:37;15.02;;;5.40;;
21148;SDS011;10732;51.472;6.466;2023-05-27T09:53:03;13.32;;;5.78;;
21148;SDS011;10732;51.472;6.466;2023-05-27T09:55:30;14.98;;;5.47;;
21148;SDS011;10732;51.472;6.466;2023-05-27T09:57:55;13.63;;;5.50;;
21148;SDS011;10732;51.472;6.466;2023-05-27T10:00:22;15.38;;;4.95;;
21148;SDS011;10732;51.472;6.466;2023-05-27T10:02:48;14.95;;;5.30;;
21148;SDS011;10732;51.472;6.466;2023-05-27T10:05:14;17.98;;;5.28;;
21148;SDS011;10732;51.472;6.466;2023-05-27T10:07:45;14.77;;;5.35;;
21148;SDS011;10732;51.472;6.466;2023-05-27T10:10:11;13.50;;;5.32;;
21148;SDS011;10732;51.472;6.466;2023-05-27T10:12:40;15.93;;;6.78;;
21148;SDS011;10732;51.472;6.466;2023-05-27T10:15:07;16.92;;;5.72;;
21148;SDS011;10732;51.472;6.466;2023-05-27T10:17:46;12.40;;;5.15;;
21148;SDS011;10732;51.472;6.466;2023-05-27T10:20:32;18.45;;;5.38;;
21148;SDS011;10732;51.472;6.466;2023-05-27T10:23:12;17.63;;;5.63;;
21148;SDS011;10732;51.472;6.466;2023-05-27T10:25:46;15.68;;;5.57;;
21148;SDS011;10732;51.472;6.466;2023-05-27T10:28:26;17.05;;;5.50;;
21148;SDS011;10732;51.472;6.466;2023-05-27T10:30:53;14.80;;;5.22;;
21148;SDS011;10732;51.472;6.466;2023-05-27T10:33:38;13.60;;;4.57;;
21148;SDS011;10732;51.472;6.466;2023-05-27T10:36:11;15.82;;;4.88;;
21148;SDS011;10732;51.472;6.466;2023-05-27T10:38:41;12.63;;;4.38;;
21148;SDS011;10732;51.472;6.466;2023-05-27T10:41:07;11.52;;;4.30;;
21148;SDS011;10732;51.472;6.466;2023-05-27T10:43:33;11.55;;;4.38;;
21148;SDS011;10732;51.472;6.466;2023-05-27T10:46:09;13.55;;;4.85;;
21148;SDS011;10732;51.472;6.466;2023-05-27T10:48:37;12.85;;;4.60;;
21148;SDS011;10732;51.472;6.466;2023-05-27T10:51:05;16.55;;;5.15;;
21148;SDS011;10732;51.472;6.466;2023-05-27T10:53:31;12.60;;;4.72;;
21148;SDS011;10732;51.472;6.466;2023-05-27T10:55:59;11.02;;;4.05;;
21148;SDS011;10732;51.472;6.466;2023-05-27T10:58:25;13.68;;;4.45;;
21148;SDS011;10732;51.472;6.466;2023-05-27T11:00:51;13.02;;;4.53;;
21148;SDS011;10732;51.472;6.466;2023-05-27T11:03:25;8.30;;;4.00;;
21148;SDS011;10732;51.472;6.466;2023-05-27T11:05:59;11.55;;;4.45;;
21148;SDS011;10732;51.472;6.466;2023-05-27T11:08:28;11.45;;;4.25;;
21148;SDS011;10732;51.472;6.466;2023-05-27T11:10:58;11.65;;;4.30;;
21148;SDS011;10732;51.472;6.466;2023-05-27T11:13:39;14.23;;;4.57;;
21148;SDS011;10732;51.472;6.466;2023-05-27T11:16:07;9.48;;;4.50;;
21148;SDS011;10732;51.472;6.466;2023-05-27T11:18:54;11.98;;;4.80;;
21148;SDS011;10732;51.472;6.466;2023-05-27T11:21:19;12.88;;;5.28;;
21148;SDS011;10732;51.472;6.466;2023-05-27T11:23:46;11.75;;;4.95;;
21148;SDS011;10732;51.472;6.466;2023-05-27T11:26:16;12.88;;;4.40;;
21148;SDS011;10732;51.472;6.466;2023-05-27T11:28:58;12.57;;;4.65;;
21148;SDS011;10732;51.472;6.466;2023-05-27T11:31:27;17.40;;;4.82;;
21148;SDS011;10732;51.472;6.466;2023-05-27T11:33:53;11.68;;;4.10;;
21148;SDS011;10732;51.472;6.466;2023-05-27T11:36:19;15.32;;;4.75;;
21148;SDS011;10732;51.472;6.466;2023-05-27T11:41:16;12.65;;;4.90;;
21148;SDS011;10732;51.472;6.466;2023-05-27T11:43:56;15.63;;;4.55;;
21148;SDS011;10732;51.472;6.466;2023-05-27T11:46:23;9.95;;;4.03;;
21148;SDS011;10732;51.472;6.466;2023-05-27T11:48:49;13.98;;;4.38;;
21148;SDS011;10732;51.472;6.466;2023-05-27T11:51:15;14.15;;;4.55;;
21148;SDS011;10732;51.472;6.466;2023-05-27T11:53:45;13.52;;;4.50;;
21148;SDS011;10732;51.472;6.466;2023-05-27T11:56:11;12.20;;;4.32;;
21148;SDS011;10732;51.472;6.466;2023-05-27T11:58:37;12.20;;;4.32;;
21148;SDS011;10732;51.472;6.466;2023-05-27T12:01:03;14.93;;;5.35;;
21148;SDS011;10732;51.472;6.466;2023-05-27T12:03:29;15.00;;;4.57;;
21148;SDS011;10732;51.472;6.466;2023-05-27T12:05:56;12.68;;;3.90;;
21148;SDS011;10732;51.472;6.466;2023-05-27T12:08:21;11.18;;;4.30;;
21148;SDS011;10732;51.472;6.466;2023-05-27T12:10:47;12.38;;;4.30;;
21148;SDS011;10732;51.472;6.466;2023-05-27T12:13:18;15.35;;;4.63;;
21148;SDS011;10732;51.472;6.466;2023-05-27T12:15:44;12.25;;;4.30;;
21148;SDS011;10732;51.472;6.466;2023-05-27T12:18:10;13.02;;;4.30;;
21148;SDS011;10732;51.472;6.466;2023-05-27T12:20:36;14.93;;;4.15;;
21148;SDS011;10732;51.472;6.466;2023-05-27T12:23:01;9.95;;;3.85;;
21148;SDS011;10732;51.472;6.466;2023-05-27T12:25:26;11.68;;;4.05;;
21148;SDS011;10732;51.472;6.466;2023-05-27T12:27:52;12.65;;;4.28;;
21148;SDS011;10732;51.472;6.466;2023-05-27T12:30:17;12.95;;;4.53;;
21148;SDS011;10732;51.472;6.466;2023-05-27T12:32:44;11.93;;;4.22;;
21148;SDS011;10732;51.472;6.466;2023-05-27T12:35:09;10.13;;;4.65;;
21148;SDS011;10732;51.472;6.466;2023-05-27T12:37:35;12.02;;;4.10;;
21148;SDS011;10732;51.472;6.466;2023-05-27T12:40:01;15.10;;;4.43;;
21148;SDS011;10732;51.472;6.466;2023-05-27T12:42:29;9.82;;;3.83;;
21148;SDS011;10732;51.472;6.466;2023-05-27T12:44:55;12.52;;;4.35;;
21148;SDS011;10732;51.472;6.466;2023-05-27T12:47:21;10.75;;;4.20;;
21148;SDS011;10732;51.472;6.466;2023-05-27T12:49:46;12.75;;;4.15;;
21148;SDS011;10732;51.472;6.466;2023-05-27T12:52:12;14.95;;;5.20;;
21148;SDS011;10732;51.472;6.466;2023-05-27T12:54:38;13.00;;;4.30;;
21148;SDS011;10732;51.472;6.466;2023-05-27T12:57:04;10.20;;;4.32;;
21148;SDS011;10732;51.472;6.466;2023-05-27T12:59:30;14.52;;;4.30;;
21148;SDS011;10732;51.472;6.466;2023-05-27T13:01:56;12.00;;;4.35;;
21148;SDS011;10732;51.472;6.466;2023-05-27T13:04:21;12.88;;;4.22;;
21148;SDS011;10732;51.472;6.466;2023-05-27T13:06:47;12.13;;;4.50;;
21148;SDS011;10732;51.472;6.466;2023-05-27T13:09:13;12.13;;;4.50;;
21148;SDS011;10732;51.472;6.466;2023-05-27T13:11:38;13.27;;;4.70;;
21148;SDS011;10732;51.472;6.466;2023-05-27T13:14:04;16.25;;;4.93;;
21148;SDS011;10732;51.472;6.466;2023-05-27T13:16:30;11.93;;;4.65;;
21148;SDS011;10732;51.472;6.466;2023-05-27T13:18:56;16.55;;;4.95;;
21148;SDS011;10732;51.472;6.466;2023-05-27T13:21:22;15.43;;;4.85;;
21148;SDS011;10732;51.472;6.466;2023-05-27T13:23:47;13.32;;;4.95;;
21148;SDS011;10732;51.472;6.466;2023-05-27T13:26:13;11.05;;;4.47;;
21148;SDS011;10732;51.472;6.466;2023-05-27T13:28:39;11.02;;;4.97;;
21148;SDS011;10732;51.472;6.466;2023-05-27T13:31:04;14.75;;;4.70;;
21148;SDS011;10732;51.472;6.466;2023-05-27T13:33:30;11.52;;;4.30;;
21148;SDS011;10732;51.472;6.466;2023-05-27T13:35:55;10.68;;;4.45;;
21148;SDS011;10732;51.472;6.466;2023-05-27T13:38:21;9.02;;;4.18;;
21148;SDS011;10732;51.472;6.466;2023-05-27T13:40:46;11.07;;;4.70;;
21148;SDS011;10732;51.472;6.466;2023-05-27T13:43:12;12.18;;;4.28;;
21148;SDS011;10732;51.472;6.466;2023-05-27T13:45:38;10.77;;;4.85;;
21148;SDS011;10732;51.472;6.466;2023-05-27T13:48:03;12.63;;;4.90;;
21148;SDS011;10732;51.472;6.466;2023-05-27T13:50:29;10.90;;;4.30;;
21148;SDS011;10732;51.472;6.466;2023-05-27T13:52:56;12.15;;;4.93;;
21148;SDS011;10732;51.472;6.466;2023-05-27T13:55:21;11.00;;;4.43;;
21148;SDS011;10732;51.472;6.466;2023-05-27T13:57:47;14.02;;;4.53;;
21148;SDS011;10732;51.472;6.466;2023-05-27T14:00:13;9.27;;;4.78;;
21148;SDS011;10732;51.472;6.466;2023-05-27T14:02:40;11.55;;;4.75;;
21148;SDS011;10732;51.472;6.466;2023-05-27T14:05:06;11.73;;;4.40;;
21148;SDS011;10732;51.472;6.466;2023-05-27T14:07:32;11.18;;;3.92;;
21148;SDS011;10732;51.472;6.466;2023-05-27T14:09:57;10.98;;;4.43;;
21148;SDS011;10732;51.472;6.466;2023-05-27T14:12:23;11.10;;;4.82;;
21148;SDS011;10732;51.472;6.466;2023-05-27T14:14:49;10.35;;;4.65;;
21148;SDS011;10732;51.472;6.466;2023-05-27T14:17:15;10.35;;;4.60;;
21148;SDS011;10732;51.472;6.466;2023-05-27T14:19:40;11.65;;;4.55;;
21148;SDS011;10732;51.472;6.466;2023-05-27T14:22:07;9.82;;;4.55;;
21148;SDS011;10732;51.472;6.466;2023-05-27T14:24:32;11.65;;;4.72;;
21148;SDS011;10732;51.472;6.466;2023-05-27T14:26:58;10.23;;;4.45;;
21148;SDS011;10732;51.472;6.466;2023-05-27T14:29:24;9.63;;;4.22;;
21148;SDS011;10732;51.472;6.466;2023-05-27T14:31:50;11.88;;;4.90;;
21148;SDS011;10732;51.472;6.466;2023-05-27T14:34:15;10.93;;;4.70;;
21148;SDS011;10732;51.472;6.466;2023-05-27T14:36:41;10.93;;;4.80;;
21148;SDS011;10732;51.472;6.466;2023-05-27T14:39:06;9.98;;;4.68;;
21148;SDS011;10732;51.472;6.466;2023-05-27T14:41:32;8.05;;;4.20;;